createdAt,value
2022-08-07T00:01:12.491Z,5.30
2022-08-07T00:03:55.155Z,5.32
2022-08-07T00:06:33.035Z,6.05
2022-08-07T00:09:16.188Z,5.25
2022-08-07T00:11:55.877Z,5.35
2022-08-07T00:14:30.039Z,5.97
2022-08-07T00:16:59.714Z,6.50
2022-08-07T00:19:34.061Z,7.18
2022-08-07T00:22:03.317Z,5.82
2022-08-07T00:24:31.759Z,5.50
2022-08-07T00:27:07.401Z,5.40
2022-08-07T00:29:37.051Z,5.50
2022-08-07T00:32:06.853Z,5.10
2022-08-07T00:34:35.572Z,6.43
2022-08-07T00:37:05.068Z,5.38
2022-08-07T00:39:32.859Z,5.20
2022-08-07T00:42:02.320Z,4.97
2022-08-07T00:44:33.035Z,4.78
2022-08-07T00:47:00.858Z,4.73
2022-08-07T00:50:16.878Z,4.50
2022-08-07T00:52:20.071Z,4.80
2022-08-07T00:54:53.549Z,4.78
2022-08-07T00:57:22.862Z,5.23
2022-08-07T00:59:50.285Z,4.50
2022-08-07T01:02:28.916Z,4.90
2022-08-07T01:04:59.324Z,5.25
2022-08-07T01:07:28.118Z,5.00
2022-08-07T01:10:06.557Z,5.55
2022-08-07T01:12:39.713Z,5.57
2022-08-07T01:15:21.269Z,5.22
2022-08-07T01:17:48.685Z,5.78
2022-08-07T01:20:17.545Z,5.97
2022-08-07T01:23:00.499Z,5.93
2022-08-07T01:25:54.058Z,5.90
2022-08-07T01:28:22.564Z,5.77
2022-08-07T01:30:51.378Z,5.80
2022-08-07T01:33:19.693Z,5.25
2022-08-07T01:35:54.175Z,5.82
2022-08-07T01:38:34.645Z,5.40
2022-08-07T01:41:04.228Z,6.70
2022-08-07T01:51:24.673Z,4.45
2022-08-07T01:54:12.576Z,5.67
2022-08-07T01:56:42.470Z,6.50
2022-08-07T01:59:19.646Z,6.07
2022-08-07T02:02:01.929Z,6.20
2022-08-07T02:04:32.817Z,5.80
2022-08-07T02:07:02.092Z,6.00
2022-08-07T02:09:52.678Z,6.43
2022-08-07T02:12:29.029Z,6.75
2022-08-07T02:14:57.539Z,6.30
2022-08-07T02:17:27.465Z,6.38
2022-08-07T02:20:04.182Z,6.70
2022-08-07T02:22:41.005Z,7.15
2022-08-07T02:25:17.159Z,7.30
2022-08-07T02:27:51.256Z,7.03
2022-08-07T02:30:20.673Z,6.50
2022-08-07T02:33:07.239Z,6.35
2022-08-07T02:36:30.015Z,6.40
2022-08-07T02:38:28.271Z,5.77
2022-08-07T02:41:01.463Z,6.00
2022-08-07T02:43:31.803Z,5.97
2022-08-07T02:46:02.358Z,6.30
2022-08-07T02:48:30.330Z,6.18
2022-08-07T02:50:59.449Z,6.55
2022-08-07T02:53:29.668Z,6.15
2022-08-07T02:56:03.567Z,6.82
2022-08-07T02:58:35.226Z,6.70
2022-08-07T03:01:04.157Z,6.65
2022-08-07T03:03:49.059Z,7.82
2022-08-07T03:06:25.550Z,6.78
2022-08-07T03:08:54.163Z,7.40
2022-08-07T03:11:25.329Z,6.70
2022-08-07T03:14:01.897Z,7.82
2022-08-07T03:16:30.373Z,7.35
2022-08-07T03:18:58.165Z,6.90
2022-08-07T03:21:25.720Z,7.30
2022-08-07T03:24:21.191Z,7.40
2022-08-07T03:26:58.122Z,8.15
2022-08-07T03:29:28.645Z,7.68
2022-08-07T03:31:56.914Z,7.70
2022-08-07T03:34:27.445Z,7.72
2022-08-07T03:36:57.402Z,8.18
2022-08-07T03:39:59.975Z,7.30
2022-08-07T03:42:15.127Z,7.35
2022-08-07T03:44:47.275Z,7.53
2022-08-07T03:47:22.775Z,7.63
2022-08-07T03:49:52.417Z,7.28
2022-08-07T03:52:26.510Z,7.40
2022-08-07T03:54:58.995Z,7.18
2022-08-07T03:58:34.144Z,7.25
2022-08-07T04:00:18.202Z,7.25
2022-08-07T04:02:49.437Z,7.22
2022-08-07T04:05:17.012Z,6.85
2022-08-07T04:07:48.539Z,7.10
2022-08-07T04:10:19.495Z,6.70
2022-08-07T04:12:47.461Z,6.90
2022-08-07T04:15:15.756Z,6.57
2022-08-07T04:18:58.420Z,6.63
2022-08-07T04:20:35.362Z,6.72
2022-08-07T04:23:06.206Z,6.95
2022-08-07T04:25:35.820Z,6.95
2022-08-07T04:28:06.796Z,6.68
2022-08-07T04:30:43.666Z,6.50
2022-08-07T04:33:25.374Z,6.57
2022-08-07T04:35:53.274Z,6.45
2022-08-07T04:38:21.834Z,6.25
2022-08-07T04:40:52.521Z,5.90
2022-08-07T04:43:22.010Z,6.78
2022-08-07T04:46:12.482Z,6.70
2022-08-07T04:49:01.602Z,6.47
2022-08-07T04:51:33.062Z,7.85
2022-08-07T04:54:06.018Z,6.90
2022-08-07T04:58:14.299Z,7.90
2022-08-07T05:00:14.556Z,7.70
2022-08-07T05:02:20.495Z,7.80
2022-08-07T05:04:54.567Z,7.40
2022-08-07T05:07:36.403Z,7.80
2022-08-07T05:10:07.755Z,7.65
2022-08-07T05:12:46.414Z,8.40
2022-08-07T05:15:24.688Z,9.00
2022-08-07T05:17:55.319Z,8.43
2022-08-07T05:20:26.824Z,8.70
2022-08-07T05:22:57.692Z,9.18
2022-08-07T05:26:10.291Z,9.30
2022-08-07T05:28:20.245Z,9.15
2022-08-07T05:30:50.880Z,9.40
2022-08-07T05:33:21.351Z,9.35
2022-08-07T05:35:50.805Z,10.57
2022-08-07T05:39:00.802Z,9.50
2022-08-07T05:41:14.192Z,10.05
2022-08-07T05:44:07.592Z,9.13
2022-08-07T05:46:33.182Z,8.93
2022-08-07T05:49:00.919Z,9.30
2022-08-07T05:51:42.191Z,8.98
2022-08-07T05:54:30.622Z,8.85
2022-08-07T05:56:57.568Z,8.73
2022-08-07T05:59:26.333Z,8.10
2022-08-07T06:01:55.575Z,8.00
2022-08-07T06:04:26.336Z,7.72
2022-08-07T06:07:03.740Z,7.82
2022-08-07T06:10:04.230Z,7.28
2022-08-07T06:12:20.877Z,7.43
2022-08-07T06:14:49.871Z,7.00
2022-08-07T06:17:18.165Z,6.05
2022-08-07T06:19:51.877Z,6.57
2022-08-07T06:22:28.048Z,6.30
2022-08-07T06:25:01.365Z,7.03
2022-08-07T06:27:44.350Z,5.95
2022-08-07T06:30:31.800Z,5.35
2022-08-07T06:33:05.189Z,5.43
2022-08-07T06:35:45.391Z,4.80
2022-08-07T06:38:20.172Z,4.30
2022-08-07T06:40:49.830Z,4.95
2022-08-07T06:43:21.222Z,4.20
2022-08-07T06:45:49.468Z,3.80
2022-08-07T06:48:23.137Z,4.15
2022-08-07T06:50:54.103Z,3.47
2022-08-07T06:55:28.351Z,2.83
2022-08-07T06:56:15.126Z,4.72
2022-08-07T07:00:13.579Z,3.85
2022-08-07T07:01:33.003Z,3.90
2022-08-07T07:04:32.659Z,3.90
2022-08-07T07:07:00.954Z,2.35
2022-08-07T07:09:31.777Z,3.00
2022-08-07T07:12:08.672Z,3.42
2022-08-07T07:14:48.439Z,2.72
2022-08-07T07:17:18.974Z,3.67
2022-08-07T07:19:57.709Z,2.33
2022-08-07T07:22:36.322Z,2.90
2022-08-07T07:26:31.717Z,3.67
2022-08-07T07:28:07.717Z,2.83
2022-08-07T07:30:52.028Z,3.63
2022-08-07T07:33:21.371Z,3.15
2022-08-07T07:36:05.668Z,2.42
2022-08-07T07:38:40.797Z,2.90
2022-08-07T07:41:13.380Z,4.03
2022-08-07T07:44:14.262Z,2.03
2022-08-07T07:46:37.691Z,3.20
2022-08-07T07:50:33.580Z,1.83
2022-08-07T07:52:08.047Z,2.95
2022-08-07T07:54:37.214Z,2.85
2022-08-07T07:57:06.380Z,2.65
2022-08-07T07:59:52.433Z,2.03
2022-08-07T08:02:33.626Z,3.17
2022-08-07T08:05:02.958Z,1.58
2022-08-07T08:07:36.002Z,2.53
2022-08-07T08:10:14.930Z,1.87
2022-08-07T08:13:00.554Z,3.08
2022-08-07T08:15:57.685Z,2.38
2022-08-07T08:18:20.885Z,2.92
2022-08-07T08:20:54.005Z,2.80
2022-08-07T08:23:39.559Z,2.53
2022-08-07T08:26:21.748Z,2.97
2022-08-07T08:28:53.444Z,2.08
2022-08-07T08:31:30.221Z,3.15
2022-08-07T08:34:12.394Z,2.08
2022-08-07T08:36:57.819Z,1.80
2022-08-07T08:39:26.244Z,1.98
2022-08-07T08:42:11.438Z,1.95
2022-08-07T08:44:44.921Z,2.72
2022-08-07T08:47:19.644Z,2.63
2022-08-07T08:50:04.687Z,2.10
2022-08-07T08:52:36.219Z,3.03
2022-08-07T08:55:12.174Z,3.05
2022-08-07T08:57:53.273Z,3.50
2022-08-07T09:00:24.506Z,3.33
2022-08-07T09:03:00.763Z,2.17
2022-08-07T09:05:36.895Z,2.53
2022-08-07T09:08:09.803Z,2.13
2022-08-07T09:10:44.995Z,2.40
2022-08-07T09:13:15.459Z,2.92
2022-08-07T09:16:25.844Z,2.53
2022-08-07T09:18:53.209Z,3.30
2022-08-07T09:21:57.940Z,3.03
2022-08-07T09:24:33.529Z,4.05
2022-08-07T09:27:13.599Z,3.05
2022-08-07T09:30:03.929Z,2.93
2022-08-07T09:32:47.325Z,2.63
2022-08-07T09:36:00.829Z,2.25
2022-08-07T09:38:12.076Z,2.33
2022-08-07T09:40:48.099Z,2.10
2022-08-07T09:43:40.108Z,2.25
2022-08-07T09:47:49.910Z,2.20
2022-08-07T09:50:01.529Z,2.50
2022-08-07T09:52:15.380Z,2.60
2022-08-07T09:54:49.046Z,2.97
2022-08-07T09:57:47.278Z,2.10
2022-08-07T10:00:15.368Z,2.10
2022-08-07T10:03:07.902Z,1.83
2022-08-07T10:06:00.855Z,2.33
2022-08-07T10:08:45.217Z,2.10
2022-08-07T10:12:02.213Z,2.60
2022-08-07T10:14:22.655Z,1.75
2022-08-07T10:16:59.544Z,1.53
2022-08-07T10:19:37.742Z,2.20
2022-08-07T10:22:24.848Z,2.15
2022-08-07T10:25:10.288Z,2.10
2022-08-07T10:27:51.450Z,2.35
2022-08-07T10:30:20.539Z,1.33
2022-08-07T10:32:59.504Z,2.28
2022-08-07T10:35:55.547Z,2.50
2022-08-07T10:38:35.931Z,1.73
2022-08-07T10:41:46.895Z,2.05
2022-08-07T10:44:12.152Z,2.20
2022-08-07T10:46:43.729Z,2.33
2022-08-07T10:49:16.592Z,2.33
2022-08-07T10:52:01.940Z,2.05
2022-08-07T10:54:53.114Z,1.90
2022-08-07T10:57:34.562Z,3.10
2022-08-07T11:00:05.995Z,2.42
2022-08-07T11:02:38.106Z,2.13
2022-08-07T11:05:12.810Z,2.40
2022-08-07T11:07:59.565Z,3.42
2022-08-07T11:10:30.969Z,2.30
2022-08-07T11:13:04.802Z,1.80
2022-08-07T11:15:34.054Z,2.55
2022-08-07T11:18:04.988Z,2.38
2022-08-07T11:20:37.856Z,2.83
2022-08-07T11:23:09.763Z,2.25
2022-08-07T11:25:43.867Z,2.55
2022-08-07T11:28:22.004Z,2.20
2022-08-07T11:30:55.981Z,1.80
2022-08-07T11:33:54.218Z,2.35
2022-08-07T11:36:20.536Z,2.95
2022-08-07T11:38:59.031Z,2.55
2022-08-07T11:42:02.421Z,2.90
2022-08-07T11:44:26.124Z,2.93
2022-08-07T11:46:59.867Z,2.40
2022-08-07T11:50:30.503Z,2.85
2022-08-07T11:53:05.104Z,1.70
2022-08-07T11:56:24.956Z,2.47
2022-08-07T11:58:39.068Z,2.58
2022-08-07T12:01:20.213Z,3.47
2022-08-07T12:03:55.771Z,3.23
2022-08-07T12:06:38.981Z,3.47
2022-08-07T12:09:16.183Z,2.53
2022-08-07T12:12:09.748Z,2.60
2022-08-07T12:14:43.407Z,2.70
2022-08-07T12:17:19.939Z,3.60
2022-08-07T12:20:12.886Z,2.00
2022-08-07T12:22:58.583Z,3.08
2022-08-07T12:26:22.237Z,3.33
2022-08-07T12:28:37.796Z,1.83
2022-08-07T12:31:17.253Z,2.50
2022-08-07T12:33:56.593Z,2.33
2022-08-07T12:36:33.364Z,3.75
2022-08-07T12:39:03.247Z,2.85
2022-08-07T12:41:49.098Z,2.88
2022-08-07T12:44:19.518Z,3.38
2022-08-07T12:46:56.129Z,1.77
2022-08-07T12:49:39.938Z,1.92
2022-08-07T12:52:18.185Z,3.47
2022-08-07T12:54:54.942Z,2.47
2022-08-07T12:57:26.137Z,3.05
2022-08-07T13:00:16.405Z,1.65
2022-08-07T13:02:57.542Z,2.13
2022-08-07T13:06:03.652Z,2.08
2022-08-07T13:08:34.929Z,1.50
2022-08-07T13:11:10.359Z,1.88
2022-08-07T13:13:51.550Z,2.83
2022-08-07T13:16:25.676Z,3.25
2022-08-07T13:18:57.936Z,2.47
2022-08-07T13:21:37.587Z,2.08
2022-08-07T13:24:25.826Z,3.10
2022-08-07T13:27:02.943Z,5.10
2022-08-07T13:29:37.231Z,1.90
2022-08-07T13:32:31.073Z,2.53
2022-08-07T13:35:08.384Z,1.80
2022-08-07T13:37:42.888Z,3.88
2022-08-07T13:40:36.371Z,3.80
2022-08-07T13:43:12.381Z,2.10
2022-08-07T13:46:11.683Z,3.07
2022-08-07T13:48:34.623Z,2.35
2022-08-07T13:51:27.428Z,2.15
2022-08-07T13:53:59.651Z,2.20
2022-08-07T13:56:35.435Z,3.27
2022-08-07T13:59:12.163Z,2.65
2022-08-07T14:01:51.113Z,2.25
2022-08-07T14:04:35.368Z,2.78
2022-08-07T14:07:09.632Z,2.90
2022-08-07T14:10:01.534Z,2.88
2022-08-07T14:12:31.962Z,1.90
2022-08-07T14:15:05.804Z,1.77
2022-08-07T14:18:15.748Z,2.97
2022-08-07T14:20:41.970Z,2.77
2022-08-07T14:23:31.596Z,2.93
2022-08-07T14:26:08.567Z,1.85
2022-08-07T14:28:57.282Z,3.17
2022-08-07T14:31:24.979Z,3.00
2022-08-07T14:34:10.536Z,2.15
2022-08-07T14:36:38.062Z,2.30
2022-08-07T14:39:12.490Z,2.50
2022-08-07T14:44:51.733Z,2.45
2022-08-07T14:47:19.937Z,2.15
2022-08-07T14:49:56.736Z,2.42
2022-08-07T14:55:17.613Z,2.08
2022-08-07T14:58:04.003Z,2.28
2022-08-07T15:00:32.565Z,2.67
2022-08-07T15:03:16.709Z,2.78
2022-08-07T15:05:54.825Z,2.65
2022-08-07T15:08:33.403Z,2.10
2022-08-07T15:11:06.677Z,1.87
2022-08-07T15:13:38.841Z,2.55
2022-08-07T15:16:10.975Z,3.00
2022-08-07T15:18:41.900Z,4.28
2022-08-07T15:21:44.407Z,3.30
2022-08-07T15:26:54.870Z,2.25
2022-08-07T15:30:09.798Z,3.25
2022-08-07T15:32:12.709Z,2.20
2022-08-07T15:40:34.402Z,2.72
2022-08-07T15:43:53.344Z,3.60
2022-08-07T15:54:26.768Z,1.83
2022-08-07T15:56:57.518Z,2.80
2022-08-07T15:59:27.308Z,3.03
2022-08-07T16:02:09.330Z,2.50
2022-08-07T16:04:45.399Z,1.85
2022-08-07T16:08:28.961Z,2.13
2022-08-07T16:10:07.970Z,3.33
2022-08-07T16:12:42.175Z,2.58
2022-08-07T16:15:58.083Z,3.70
2022-08-07T16:18:49.731Z,1.55
2022-08-07T16:21:57.046Z,2.53
2022-08-07T16:24:33.918Z,2.88
2022-08-07T16:27:17.915Z,3.72
2022-08-07T16:30:11.880Z,2.72
2022-08-07T16:32:55.027Z,2.30
2022-08-07T16:35:52.167Z,2.40
2022-08-07T16:38:59.877Z,2.03
2022-08-07T16:41:41.702Z,2.33
2022-08-07T16:44:46.286Z,3.08
2022-08-07T16:47:49.740Z,2.83
2022-08-07T16:50:37.236Z,2.60
2022-08-07T16:53:48.164Z,2.23
2022-08-07T16:56:13.918Z,2.97
2022-08-07T16:59:11.126Z,2.17
2022-08-07T17:01:40.986Z,1.70
2022-08-07T17:04:13.924Z,2.10
2022-08-07T17:07:03.016Z,1.70
2022-08-07T17:10:06.789Z,3.38
2022-08-07T17:12:35.031Z,1.92
2022-08-07T17:15:05.202Z,2.00
2022-08-07T17:17:46.041Z,1.75
2022-08-07T17:20:20.880Z,2.00
2022-08-07T17:22:53.092Z,2.33
2022-08-07T17:25:51.793Z,2.30
2022-08-07T17:28:19.618Z,1.50
2022-08-07T17:30:58.329Z,3.23
2022-08-07T17:34:08.678Z,1.73
2022-08-07T17:36:26.074Z,1.55
2022-08-07T17:39:02.652Z,2.60
2022-08-07T17:42:02.939Z,2.25
2022-08-07T17:44:45.302Z,0.90
2022-08-07T17:47:37.722Z,1.65
2022-08-07T17:50:08.748Z,1.30
2022-08-07T17:52:43.453Z,1.80
2022-08-07T17:55:13.487Z,1.80
2022-08-07T17:57:59.331Z,1.15
2022-08-07T18:13:46.080Z,1.35
2022-08-07T18:16:31.089Z,2.97
2022-08-07T18:24:35.521Z,0.98
2022-08-07T18:27:25.736Z,2.10
2022-08-07T18:38:55.413Z,2.40
2022-08-07T18:41:09.262Z,0.95
2022-08-07T18:43:49.528Z,2.70
2022-08-07T18:46:25.819Z,2.13
2022-08-07T18:50:30.245Z,5.82
2022-08-07T18:52:33.896Z,2.17
2022-08-07T18:55:08.412Z,1.45
2022-08-07T18:57:58.357Z,1.08
2022-08-07T19:01:00.694Z,4.07
2022-08-07T19:03:36.140Z,0.95
2022-08-07T19:06:07.949Z,1.95
2022-08-07T19:08:46.308Z,1.73
2022-08-07T19:11:36.104Z,2.20
2022-08-07T19:14:11.593Z,1.48
2022-08-07T19:19:38.797Z,2.15
2022-08-07T19:22:11.439Z,0.90
2022-08-07T19:24:48.831Z,1.27
2022-08-07T19:28:58.223Z,1.63
2022-08-07T19:31:05.895Z,2.58
2022-08-07T19:35:28.237Z,1.65
2022-08-07T19:38:02.240Z,1.63
2022-08-07T19:40:34.849Z,1.42
2022-08-07T19:43:09.182Z,2.00
2022-08-07T19:46:07.498Z,1.33
2022-08-07T19:48:42.397Z,1.65
2022-08-07T19:51:20.193Z,1.70
2022-08-07T19:54:31.283Z,3.22
2022-08-07T19:58:03.554Z,2.90
2022-08-07T19:59:39.821Z,5.20
2022-08-07T20:02:15.294Z,3.47
2022-08-07T20:04:49.263Z,3.22
2022-08-07T20:07:23.673Z,2.58
2022-08-07T20:10:35.352Z,5.38
2022-08-07T20:12:54.405Z,5.18
2022-08-07T20:15:33.141Z,4.43
2022-08-07T20:18:14.756Z,4.55
2022-08-07T20:20:46.058Z,5.03
2022-08-07T20:23:40.583Z,5.55
2022-08-07T20:26:09.776Z,4.60
2022-08-07T20:28:39.201Z,6.88
2022-08-07T20:31:21.437Z,5.18
2022-08-07T20:33:51.864Z,5.32
2022-08-07T20:36:26.459Z,3.77
2022-08-07T20:39:00.820Z,5.28
2022-08-07T20:41:43.428Z,4.57
2022-08-07T20:44:14.051Z,4.47
2022-08-07T20:46:45.677Z,4.75
2022-08-07T20:50:01.250Z,4.50
2022-08-07T20:52:13.862Z,3.80
2022-08-07T20:54:45.653Z,5.47
2022-08-07T20:57:22.917Z,3.88
2022-08-07T21:00:07.542Z,4.18
2022-08-07T21:02:57.606Z,6.18
2022-08-07T21:05:54.687Z,3.58
2022-08-07T21:08:15.481Z,4.82
2022-08-07T21:10:43.941Z,3.72
2022-08-07T21:13:13.149Z,5.20
2022-08-07T21:15:58.126Z,5.10
2022-08-07T21:18:33.816Z,3.28
2022-08-07T21:21:01.907Z,5.75
2022-08-07T21:23:35.736Z,5.82
2022-08-07T21:26:21.893Z,3.33
2022-08-07T21:28:53.420Z,3.75
2022-08-07T21:31:49.699Z,5.10
2022-08-07T21:34:14.484Z,2.97
2022-08-07T21:36:50.342Z,3.90
2022-08-07T21:39:46.242Z,5.47
2022-08-07T21:42:40.926Z,3.42
2022-08-07T21:46:05.398Z,3.60
2022-08-07T21:48:03.177Z,5.20
2022-08-07T21:50:36.348Z,4.25
2022-08-07T21:53:08.501Z,3.58
2022-08-07T21:55:43.397Z,4.15
2022-08-07T21:58:30.181Z,4.28
2022-08-07T22:01:00.614Z,3.33
2022-08-07T22:03:33.639Z,3.15
2022-08-07T22:06:04.855Z,3.88
2022-08-07T22:08:35.368Z,4.15
2022-08-07T22:11:05.628Z,3.97
2022-08-07T22:13:51.209Z,5.53
2022-08-07T22:16:45.003Z,2.73
2022-08-07T22:19:18.177Z,2.33
2022-08-07T22:22:05.115Z,3.53
2022-08-07T22:24:44.332Z,3.55
2022-08-07T22:27:15.986Z,3.75
2022-08-07T22:29:48.040Z,3.88
2022-08-07T22:32:20.805Z,4.25
2022-08-07T22:34:53.650Z,4.95
2022-08-07T22:38:03.887Z,3.85
2022-08-07T22:40:21.755Z,3.78
2022-08-07T22:42:50.042Z,4.82
2022-08-07T22:46:04.577Z,4.60
2022-08-07T22:48:13.709Z,4.10
2022-08-07T22:51:13.927Z,3.97
2022-08-07T22:54:08.089Z,3.92
2022-08-07T22:56:42.235Z,4.32
2022-08-07T22:59:26.851Z,5.07
2022-08-07T23:02:04.315Z,4.20
2022-08-07T23:04:57.985Z,2.97
2022-08-07T23:07:51.004Z,4.03
2022-08-07T23:10:38.226Z,3.50
2022-08-07T23:13:29.250Z,3.58
2022-08-07T23:16:05.401Z,4.45
2022-08-07T23:18:42.283Z,4.72
2022-08-07T23:21:16.363Z,3.67
2022-08-07T23:24:05.051Z,4.85
2022-08-07T23:26:50.522Z,3.63
2022-08-07T23:29:43.138Z,4.60
2022-08-07T23:34:21.573Z,3.25
2022-08-07T23:35:16.626Z,4.20
2022-08-07T23:38:01.137Z,4.30
2022-08-07T23:40:35.338Z,3.22
2022-08-07T23:43:21.663Z,4.28
2022-08-07T23:46:02.805Z,4.22
2022-08-07T23:48:38.004Z,4.47
2022-08-07T23:52:55.923Z,3.80
2022-08-07T23:53:59.645Z,3.92
2022-08-07T23:56:35.074Z,4.40
